VLG78Y LEBL-LEAS
Flight info
| Callsign | VLG78Y |
|---|---|
| Flight time | 1h 7m |
| Altitude | 32000 |
| Route | GRAUS M601 BLV M190 AMAKA |
| Aircraft | A20N/M-SDE2E3FGHIRWXY/LB1 |
Departure
| Time | 2026-04-18 04:21 |
|---|---|
| Airport | Josep Tarradellas Barcelona-El Prat Airport (LEBL) |
Arrival
| Time | 2026-04-18 05:28 |
|---|---|
| Airport | Asturias Airport (LEAS) |
| Time | Latitude | Longitude | Altitude | Speed | Heading |
|---|---|---|---|---|---|
| 2026-04-18 03:53 | 41.28982 | 2.07902 | 12 ft | 0 kts | 335° |
| 2026-04-18 04:07 | 41.28970 | 2.07909 | 12 ft | 2 kts | 335° |
| 2026-04-18 04:07 | 41.28958 | 2.07916 | 12 ft | 2 kts | 336° |
| 2026-04-18 04:08 | 41.28944 | 2.07924 | 12 ft | 2 kts | 335° |
| 2026-04-18 04:08 | 41.28930 | 2.07932 | 12 ft | 2 kts | 352° |
| 2026-04-18 04:08 | 41.28915 | 2.07931 | 12 ft | 2 kts | 19° |
| 2026-04-18 04:08 | 41.28902 | 2.07921 | 12 ft | 2 kts | 45° |
| 2026-04-18 04:09 | 41.28896 | 2.07911 | 12 ft | 0 kts | 63° |
| 2026-04-18 04:09 | 41.28892 | 2.07901 | 12 ft | 0 kts | 65° |
| 2026-04-18 04:12 | 41.28895 | 2.07909 | 12 ft | 2 kts | 65° |
| 2026-04-18 04:13 | 41.28910 | 2.07951 | 12 ft | 7 kts | 65° |
| 2026-04-18 04:13 | 41.28935 | 2.08024 | 12 ft | 9 kts | 65° |
| 2026-04-18 04:13 | 41.28959 | 2.08094 | 12 ft | 10 kts | 65° |
| 2026-04-18 04:14 | 41.28984 | 2.08168 | 12 ft | 10 kts | 65° |
| 2026-04-18 04:14 | 41.29017 | 2.08261 | 12 ft | 11 kts | 65° |
| 2026-04-18 04:14 | 41.29052 | 2.08361 | 12 ft | 11 kts | 58° |
| 2026-04-18 04:15 | 41.29122 | 2.08411 | 13 ft | 12 kts | 17° |
| 2026-04-18 04:15 | 41.29190 | 2.08456 | 12 ft | 9 kts | 70° |
| 2026-04-18 04:15 | 41.29147 | 2.08514 | 12 ft | 10 kts | 158° |
| 2026-04-18 04:15 | 41.29081 | 2.08553 | 13 ft | 10 kts | 155° |
| 2026-04-18 04:16 | 41.29015 | 2.08593 | 15 ft | 10 kts | 155° |
| 2026-04-18 04:16 | 41.28945 | 2.08634 | 15 ft | 11 kts | 156° |
| 2026-04-18 04:16 | 41.28873 | 2.08686 | 15 ft | 11 kts | 128° |
| 2026-04-18 04:16 | 41.28881 | 2.08785 | 17 ft | 11 kts | 66° |
| 2026-04-18 04:17 | 41.28915 | 2.08885 | 18 ft | 12 kts | 65° |
| 2026-04-18 04:17 | 41.28949 | 2.08984 | 19 ft | 11 kts | 65° |
| 2026-04-18 04:17 | 41.28986 | 2.09089 | 19 ft | 13 kts | 65° |
| 2026-04-18 04:17 | 41.29024 | 2.09202 | 18 ft | 13 kts | 66° |
| 2026-04-18 04:18 | 41.29062 | 2.09314 | 20 ft | 13 kts | 65° |
| 2026-04-18 04:18 | 41.29101 | 2.09427 | 19 ft | 13 kts | 64° |
| 2026-04-18 04:18 | 41.29144 | 2.09550 | 19 ft | 15 kts | 65° |
| 2026-04-18 04:18 | 41.29187 | 2.09676 | 21 ft | 14 kts | 66° |
| 2026-04-18 04:19 | 41.29230 | 2.09800 | 21 ft | 15 kts | 65° |
| 2026-04-18 04:19 | 41.29274 | 2.09928 | 21 ft | 14 kts | 65° |
| 2026-04-18 04:19 | 41.29270 | 2.10041 | 23 ft | 12 kts | 110° |
| 2026-04-18 04:19 | 41.29239 | 2.10148 | 23 ft | 12 kts | 109° |
| 2026-04-18 04:20 | 41.29254 | 2.10250 | 24 ft | 9 kts | 79° |
| 2026-04-18 04:20 | 41.29210 | 2.10285 | 25 ft | 9 kts | 214° |
| 2026-04-18 04:20 | 41.29130 | 2.10061 | 25 ft | 61 kts | 246° |
| 2026-04-18 04:20 | 41.28853 | 2.09248 | 25 ft | 131 kts | 245° |
| 2026-04-18 04:21 | 41.28394 | 2.07915 | 172 ft | 172 kts | 248° |
| 2026-04-18 04:21 | 41.27824 | 2.06545 | 877 ft | 174 kts | 237° |
| 2026-04-18 04:21 | 41.27055 | 2.05303 | 1699 ft | 175 kts | 226° |
| 2026-04-18 04:21 | 41.26111 | 2.04269 | 2265 ft | 183 kts | 214° |
| 2026-04-18 04:22 | 41.24929 | 2.03478 | 2688 ft | 200 kts | 200° |
| 2026-04-18 04:22 | 41.23522 | 2.03038 | 3083 ft | 220 kts | 188° |
| 2026-04-18 04:22 | 41.21936 | 2.02770 | 3559 ft | 237 kts | 186° |
| 2026-04-18 04:22 | 41.20283 | 2.02527 | 4322 ft | 242 kts | 187° |
| 2026-04-18 04:23 | 41.18659 | 2.02025 | 5104 ft | 245 kts | 204° |
| 2026-04-18 04:23 | 41.17192 | 2.00866 | 5888 ft | 246 kts | 221° |
| 2026-04-18 04:23 | 41.16032 | 1.99218 | 6641 ft | 249 kts | 233° |
| 2026-04-18 04:23 | 41.14982 | 1.97402 | 7361 ft | 254 kts | 234° |
| 2026-04-18 04:24 | 41.13932 | 1.95518 | 8088 ft | 258 kts | 238° |
| 2026-04-18 04:24 | 41.13113 | 1.93418 | 8795 ft | 260 kts | 252° |
| 2026-04-18 04:24 | 41.12644 | 1.91088 | 9425 ft | 265 kts | 271° |
| 2026-04-18 04:24 | 41.13071 | 1.88725 | 9844 ft | 273 kts | 304° |
| 2026-04-18 04:25 | 41.14236 | 1.86689 | 10346 ft | 283 kts | 312° |
| 2026-04-18 04:25 | 41.15541 | 1.84654 | 10730 ft | 300 kts | 312° |
| 2026-04-18 04:25 | 41.16907 | 1.82473 | 11070 ft | 318 kts | 311° |
| 2026-04-18 04:25 | 41.18334 | 1.80116 | 11394 ft | 336 kts | 310° |
| 2026-04-18 04:26 | 41.19790 | 1.77649 | 11841 ft | 347 kts | 309° |
| 2026-04-18 04:26 | 41.21274 | 1.75092 | 12534 ft | 351 kts | 309° |
| 2026-04-18 04:26 | 41.22760 | 1.72510 | 13235 ft | 354 kts | 309° |
| 2026-04-18 04:26 | 41.24239 | 1.69930 | 13885 ft | 358 kts | 309° |
| 2026-04-18 04:27 | 41.25760 | 1.67267 | 14559 ft | 361 kts | 309° |
| 2026-04-18 04:27 | 41.27277 | 1.64605 | 15262 ft | 362 kts | 309° |
| 2026-04-18 04:27 | 41.28788 | 1.61947 | 15944 ft | 364 kts | 309° |
| 2026-04-18 04:27 | 41.30306 | 1.59271 | 16601 ft | 365 kts | 309° |
| 2026-04-18 04:28 | 41.31832 | 1.56581 | 17204 ft | 368 kts | 309° |
| 2026-04-18 04:28 | 41.33398 | 1.53816 | 17562 ft | 378 kts | 309° |
| 2026-04-18 04:28 | 41.34981 | 1.51022 | 18032 ft | 384 kts | 309° |
| 2026-04-18 04:28 | 41.36602 | 1.48156 | 18629 ft | 386 kts | 308° |
| 2026-04-18 04:29 | 41.38204 | 1.45321 | 19194 ft | 388 kts | 308° |
| 2026-04-18 04:29 | 41.39843 | 1.42414 | 19727 ft | 391 kts | 308° |
| 2026-04-18 04:29 | 41.41463 | 1.39542 | 20253 ft | 394 kts | 308° |
| 2026-04-18 04:29 | 41.43115 | 1.36614 | 20769 ft | 397 kts | 308° |
| 2026-04-18 04:30 | 41.44779 | 1.33653 | 21280 ft | 400 kts | 307° |
| 2026-04-18 04:30 | 41.46431 | 1.30701 | 21778 ft | 403 kts | 307° |
| 2026-04-18 04:30 | 41.48106 | 1.27706 | 22271 ft | 405 kts | 307° |
| 2026-04-18 04:30 | 41.49796 | 1.24683 | 22762 ft | 408 kts | 307° |
| 2026-04-18 04:31 | 41.51501 | 1.21635 | 23234 ft | 410 kts | 306° |
| 2026-04-18 04:31 | 41.53193 | 1.18611 | 23681 ft | 413 kts | 306° |
| 2026-04-18 04:31 | 41.54908 | 1.15541 | 24112 ft | 416 kts | 306° |
| 2026-04-18 04:31 | 41.56653 | 1.12417 | 24519 ft | 419 kts | 306° |
| 2026-04-18 04:32 | 41.58393 | 1.09297 | 24912 ft | 422 kts | 306° |
| 2026-04-18 04:32 | 41.60138 | 1.06168 | 25281 ft | 425 kts | 306° |
| 2026-04-18 04:32 | 41.61890 | 1.03023 | 25650 ft | 427 kts | 306° |
| 2026-04-18 04:32 | 41.63675 | 0.99815 | 26059 ft | 429 kts | 306° |
| 2026-04-18 04:33 | 41.65441 | 0.96638 | 26572 ft | 427 kts | 306° |
| 2026-04-18 04:33 | 41.67215 | 0.93444 | 27111 ft | 425 kts | 306° |
| 2026-04-18 04:33 | 41.68962 | 0.90296 | 27596 ft | 423 kts | 306° |
| 2026-04-18 04:33 | 41.70709 | 0.87143 | 28047 ft | 423 kts | 305° |
| 2026-04-18 04:34 | 41.72447 | 0.84004 | 28493 ft | 422 kts | 305° |
| 2026-04-18 04:34 | 41.74195 | 0.80845 | 28944 ft | 421 kts | 305° |
| 2026-04-18 04:34 | 41.75925 | 0.77712 | 29371 ft | 421 kts | 305° |
| 2026-04-18 04:34 | 41.77663 | 0.74561 | 29787 ft | 421 kts | 305° |
| 2026-04-18 04:35 | 41.79385 | 0.71440 | 30214 ft | 420 kts | 304° |
| 2026-04-18 04:35 | 41.81113 | 0.68301 | 30670 ft | 418 kts | 304° |
| 2026-04-18 04:35 | 41.82830 | 0.65179 | 31136 ft | 416 kts | 304° |
| 2026-04-18 04:35 | 41.84536 | 0.62074 | 31575 ft | 415 kts | 304° |
| 2026-04-18 04:36 | 41.86245 | 0.58962 | 32014 ft | 413 kts | 304° |
| 2026-04-18 04:36 | 41.87942 | 0.55869 | 32420 ft | 412 kts | 304° |
| 2026-04-18 04:36 | 41.89623 | 0.52801 | 32756 ft | 411 kts | 304° |
| 2026-04-18 04:36 | 41.91311 | 0.49714 | 33041 ft | 412 kts | 304° |
| 2026-04-18 04:37 | 41.93015 | 0.46596 | 33310 ft | 413 kts | 304° |
| 2026-04-18 04:37 | 41.94690 | 0.43527 | 33565 ft | 414 kts | 304° |
| 2026-04-18 04:37 | 41.96374 | 0.40381 | 33828 ft | 414 kts | 302° |
| 2026-04-18 04:37 | 41.97930 | 0.37137 | 34079 ft | 413 kts | 298° |
| 2026-04-18 04:38 | 41.99343 | 0.33784 | 34133 ft | 413 kts | 295° |
| 2026-04-18 04:38 | 42.01934 | 0.26903 | 34142 ft | 413 kts | 294° |
| 2026-04-18 04:39 | 42.04505 | 0.20009 | 34147 ft | 413 kts | 294° |
| 2026-04-18 04:39 | 42.07061 | 0.13168 | 34153 ft | 413 kts | 294° |
| 2026-04-18 04:40 | 42.09632 | 0.06267 | 34157 ft | 413 kts | 294° |
| 2026-04-18 04:40 | 42.12225 | -0.00655 | 34161 ft | 414 kts | 294° |
| 2026-04-18 04:41 | 42.14809 | -0.07567 | 34171 ft | 414 kts | 294° |
| 2026-04-18 04:41 | 42.17376 | -0.14494 | 34175 ft | 415 kts | 294° |
| 2026-04-18 04:42 | 42.19926 | -0.21406 | 34177 ft | 414 kts | 294° |
| 2026-04-18 04:42 | 42.22495 | -0.28371 | 34176 ft | 414 kts | 294° |
| 2026-04-18 04:43 | 42.25051 | -0.35319 | 34176 ft | 414 kts | 294° |
| 2026-04-18 04:43 | 42.27589 | -0.42247 | 34175 ft | 413 kts | 294° |
| 2026-04-18 04:44 | 42.30130 | -0.49209 | 34176 ft | 413 kts | 294° |
| 2026-04-18 04:44 | 42.32663 | -0.56158 | 34183 ft | 414 kts | 294° |
| 2026-04-18 04:45 | 42.35190 | -0.63091 | 34186 ft | 414 kts | 294° |
| 2026-04-18 04:45 | 42.37719 | -0.70065 | 34184 ft | 414 kts | 293° |
| 2026-04-18 04:46 | 42.40239 | -0.77040 | 34183 ft | 414 kts | 293° |
| 2026-04-18 04:46 | 42.42750 | -0.83995 | 34184 ft | 414 kts | 293° |
| 2026-04-18 04:47 | 42.45262 | -0.90960 | 34191 ft | 414 kts | 293° |
| 2026-04-18 04:47 | 42.47786 | -0.97991 | 34195 ft | 414 kts | 293° |
| 2026-04-18 04:48 | 42.50274 | -1.04937 | 34199 ft | 413 kts | 293° |
| 2026-04-18 04:48 | 42.52783 | -1.11946 | 34197 ft | 413 kts | 293° |
| 2026-04-18 04:49 | 42.55268 | -1.18911 | 34199 ft | 413 kts | 293° |
| 2026-04-18 04:49 | 42.57761 | -1.25916 | 34191 ft | 413 kts | 293° |
| 2026-04-18 04:50 | 42.60245 | -1.32916 | 34196 ft | 413 kts | 293° |
| 2026-04-18 04:50 | 42.62725 | -1.39914 | 34191 ft | 413 kts | 293° |
| 2026-04-18 04:51 | 42.65216 | -1.46953 | 34186 ft | 414 kts | 293° |
| 2026-04-18 04:51 | 42.67699 | -1.53994 | 34190 ft | 414 kts | 293° |
| 2026-04-18 04:52 | 42.70167 | -1.61017 | 34184 ft | 414 kts | 293° |
| 2026-04-18 04:52 | 42.72669 | -1.68080 | 34180 ft | 414 kts | 294° |
| 2026-04-18 04:53 | 42.75547 | -1.74834 | 34180 ft | 416 kts | 299° |
| 2026-04-18 04:53 | 42.78657 | -1.81446 | 34182 ft | 416 kts | 300° |
| 2026-04-18 04:54 | 42.81761 | -1.88042 | 34183 ft | 416 kts | 300° |
| 2026-04-18 04:54 | 42.84862 | -1.94663 | 34189 ft | 417 kts | 300° |
| 2026-04-18 04:55 | 42.87985 | -2.01334 | 34194 ft | 417 kts | 300° |
| 2026-04-18 04:55 | 42.91089 | -2.07982 | 34196 ft | 417 kts | 300° |
| 2026-04-18 04:56 | 42.95414 | -2.17270 | 34189 ft | 417 kts | 300° |
| 2026-04-18 04:56 | 42.98522 | -2.23963 | 34191 ft | 417 kts | 300° |
| 2026-04-18 04:57 | 43.01648 | -2.30622 | 34196 ft | 417 kts | 300° |
| 2026-04-18 04:57 | 43.04779 | -2.37292 | 34191 ft | 416 kts | 300° |
| 2026-04-18 04:58 | 43.07896 | -2.43953 | 34194 ft | 416 kts | 300° |
| 2026-04-18 04:58 | 43.10990 | -2.50572 | 34198 ft | 416 kts | 300° |
| 2026-04-18 04:59 | 43.14125 | -2.57248 | 34193 ft | 416 kts | 300° |
| 2026-04-18 04:59 | 43.17234 | -2.63916 | 34203 ft | 417 kts | 300° |
| 2026-04-18 05:00 | 43.20312 | -2.70572 | 34212 ft | 417 kts | 299° |
| 2026-04-18 05:00 | 43.23403 | -2.77280 | 34212 ft | 416 kts | 299° |
| 2026-04-18 05:01 | 43.26458 | -2.83998 | 34220 ft | 416 kts | 296° |
| 2026-04-18 05:01 | 43.29059 | -2.91017 | 34221 ft | 412 kts | 290° |
| 2026-04-18 05:02 | 43.31052 | -2.98344 | 34222 ft | 410 kts | 284° |
| 2026-04-18 05:02 | 43.32441 | -3.05897 | 34232 ft | 413 kts | 279° |
| 2026-04-18 05:03 | 43.33597 | -3.13613 | 34221 ft | 414 kts | 279° |
| 2026-04-18 05:03 | 43.34755 | -3.21376 | 34231 ft | 414 kts | 279° |
| 2026-04-18 05:04 | 43.35904 | -3.29096 | 34218 ft | 414 kts | 279° |
| 2026-04-18 05:04 | 43.37058 | -3.36785 | 34227 ft | 414 kts | 279° |
| 2026-04-18 05:05 | 43.38221 | -3.44473 | 34209 ft | 413 kts | 279° |
| 2026-04-18 05:05 | 43.38800 | -3.48334 | 33841 ft | 413 kts | 279° |
| 2026-04-18 05:05 | 43.39379 | -3.52191 | 33321 ft | 411 kts | 279° |
| 2026-04-18 05:06 | 43.39949 | -3.56006 | 32738 ft | 410 kts | 279° |
| 2026-04-18 05:06 | 43.40514 | -3.59814 | 32127 ft | 409 kts | 279° |
| 2026-04-18 05:06 | 43.41085 | -3.63658 | 31505 ft | 409 kts | 279° |
| 2026-04-18 05:06 | 43.41652 | -3.67499 | 30860 ft | 410 kts | 279° |
| 2026-04-18 05:07 | 43.42214 | -3.71316 | 30225 ft | 410 kts | 279° |
| 2026-04-18 05:07 | 43.42774 | -3.75131 | 29565 ft | 410 kts | 279° |
| 2026-04-18 05:07 | 43.43332 | -3.78933 | 28913 ft | 411 kts | 279° |
| 2026-04-18 05:07 | 43.43901 | -3.82809 | 28257 ft | 410 kts | 279° |
| 2026-04-18 05:08 | 43.44455 | -3.86607 | 27592 ft | 410 kts | 278° |
| 2026-04-18 05:08 | 43.44922 | -3.90451 | 26927 ft | 409 kts | 276° |
| 2026-04-18 05:08 | 43.45244 | -3.94342 | 26285 ft | 413 kts | 273° |
| 2026-04-18 05:08 | 43.45500 | -3.98311 | 25617 ft | 414 kts | 273° |
| 2026-04-18 05:09 | 43.45742 | -4.02170 | 25083 ft | 409 kts | 273° |
| 2026-04-18 05:09 | 43.45982 | -4.06057 | 24694 ft | 407 kts | 272° |
| 2026-04-18 05:09 | 43.46220 | -4.09937 | 24283 ft | 406 kts | 273° |
| 2026-04-18 05:09 | 43.46453 | -4.13758 | 23873 ft | 404 kts | 272° |
| 2026-04-18 05:10 | 43.46689 | -4.17630 | 23457 ft | 401 kts | 273° |
| 2026-04-18 05:10 | 43.46918 | -4.21414 | 23049 ft | 399 kts | 273° |
| 2026-04-18 05:10 | 43.47144 | -4.25172 | 22646 ft | 397 kts | 273° |
| 2026-04-18 05:10 | 43.47371 | -4.28955 | 22173 ft | 394 kts | 273° |
| 2026-04-18 05:11 | 43.47594 | -4.32677 | 21683 ft | 391 kts | 273° |
| 2026-04-18 05:11 | 43.47794 | -4.36352 | 21193 ft | 387 kts | 272° |
| 2026-04-18 05:11 | 43.47969 | -4.40022 | 20713 ft | 384 kts | 272° |
| 2026-04-18 05:11 | 43.48138 | -4.43660 | 20210 ft | 380 kts | 272° |
| 2026-04-18 05:12 | 43.48306 | -4.47261 | 19701 ft | 377 kts | 272° |
| 2026-04-18 05:12 | 43.48477 | -4.50859 | 19199 ft | 375 kts | 272° |
| 2026-04-18 05:12 | 43.48666 | -4.54415 | 18695 ft | 372 kts | 272° |
| 2026-04-18 05:12 | 43.48859 | -4.57930 | 18182 ft | 370 kts | 272° |
| 2026-04-18 05:13 | 43.49053 | -4.61440 | 17682 ft | 367 kts | 272° |
| 2026-04-18 05:13 | 43.49241 | -4.64906 | 17207 ft | 365 kts | 273° |
| 2026-04-18 05:13 | 43.49427 | -4.68370 | 16682 ft | 363 kts | 272° |
| 2026-04-18 05:13 | 43.49610 | -4.71801 | 16222 ft | 360 kts | 272° |
| 2026-04-18 05:14 | 43.49791 | -4.75220 | 15717 ft | 358 kts | 272° |
| 2026-04-18 05:14 | 43.49968 | -4.78604 | 15228 ft | 356 kts | 272° |
| 2026-04-18 05:14 | 43.50145 | -4.82004 | 14763 ft | 353 kts | 272° |
| 2026-04-18 05:14 | 43.50318 | -4.85339 | 14303 ft | 351 kts | 272° |
| 2026-04-18 05:15 | 43.50493 | -4.88662 | 13825 ft | 349 kts | 273° |
| 2026-04-18 05:15 | 43.50679 | -4.91987 | 13325 ft | 347 kts | 273° |
| 2026-04-18 05:15 | 43.50867 | -4.95263 | 12854 ft | 345 kts | 273° |
| 2026-04-18 05:15 | 43.51055 | -4.98542 | 12424 ft | 343 kts | 273° |
| 2026-04-18 05:16 | 43.51237 | -5.01767 | 11976 ft | 341 kts | 273° |
| 2026-04-18 05:16 | 43.51420 | -5.05023 | 11500 ft | 340 kts | 273° |
| 2026-04-18 05:16 | 43.51599 | -5.08268 | 10999 ft | 338 kts | 273° |
| 2026-04-18 05:16 | 43.51774 | -5.11444 | 10635 ft | 332 kts | 273° |
| 2026-04-18 05:17 | 43.51946 | -5.14561 | 10520 ft | 318 kts | 273° |
| 2026-04-18 05:17 | 43.52107 | -5.17494 | 10427 ft | 304 kts | 273° |
| 2026-04-18 05:17 | 43.52260 | -5.20323 | 10351 ft | 291 kts | 273° |
| 2026-04-18 05:17 | 43.52408 | -5.23055 | 10262 ft | 278 kts | 272° |
| 2026-04-18 05:18 | 43.52546 | -5.25629 | 10089 ft | 271 kts | 272° |
| 2026-04-18 05:18 | 43.52684 | -5.28227 | 9744 ft | 270 kts | 272° |
| 2026-04-18 05:18 | 43.52788 | -5.30800 | 9416 ft | 268 kts | 268° |
| 2026-04-18 05:18 | 43.52658 | -5.33336 | 9089 ft | 265 kts | 260° |
| 2026-04-18 05:19 | 43.52309 | -5.35809 | 8748 ft | 264 kts | 257° |
| 2026-04-18 05:19 | 43.51913 | -5.38259 | 8431 ft | 263 kts | 256° |
| 2026-04-18 05:19 | 43.51510 | -5.40719 | 8130 ft | 263 kts | 256° |
| 2026-04-18 05:19 | 43.51114 | -5.43146 | 7803 ft | 262 kts | 256° |
| 2026-04-18 05:20 | 43.50715 | -5.45599 | 7494 ft | 262 kts | 256° |
| 2026-04-18 05:20 | 43.50316 | -5.48062 | 7244 ft | 268 kts | 256° |
| 2026-04-18 05:20 | 43.49909 | -5.50570 | 6918 ft | 271 kts | 257° |
| 2026-04-18 05:20 | 43.49500 | -5.53094 | 6534 ft | 271 kts | 257° |
| 2026-04-18 05:21 | 43.49091 | -5.55623 | 6203 ft | 269 kts | 256° |
| 2026-04-18 05:21 | 43.48687 | -5.58098 | 5888 ft | 267 kts | 256° |
| 2026-04-18 05:21 | 43.48280 | -5.60599 | 5681 ft | 261 kts | 257° |
| 2026-04-18 05:21 | 43.47893 | -5.62978 | 5660 ft | 249 kts | 257° |
| 2026-04-18 05:22 | 43.47645 | -5.65250 | 5624 ft | 236 kts | 268° |
| 2026-04-18 05:22 | 43.47797 | -5.67480 | 5451 ft | 231 kts | 282° |
| 2026-04-18 05:22 | 43.48243 | -5.69572 | 5158 ft | 231 kts | 289° |
| 2026-04-18 05:22 | 43.48800 | -5.71630 | 4858 ft | 230 kts | 290° |
| 2026-04-18 05:23 | 43.49352 | -5.73709 | 4532 ft | 227 kts | 289° |
| 2026-04-18 05:23 | 43.49852 | -5.75725 | 4236 ft | 219 kts | 289° |
| 2026-04-18 05:23 | 43.50313 | -5.77669 | 3949 ft | 212 kts | 288° |
| 2026-04-18 05:23 | 43.50763 | -5.79611 | 3718 ft | 210 kts | 289° |
| 2026-04-18 05:24 | 43.51188 | -5.81457 | 3530 ft | 201 kts | 289° |
| 2026-04-18 05:24 | 43.51609 | -5.83281 | 3237 ft | 198 kts | 289° |
| 2026-04-18 05:24 | 43.52022 | -5.85058 | 2946 ft | 191 kts | 289° |
| 2026-04-18 05:24 | 43.52419 | -5.86756 | 2712 ft | 181 kts | 290° |
| 2026-04-18 05:25 | 43.52800 | -5.88385 | 2449 ft | 176 kts | 289° |
| 2026-04-18 05:25 | 43.53172 | -5.89973 | 2210 ft | 170 kts | 289° |
| 2026-04-18 05:25 | 43.53517 | -5.91443 | 1985 ft | 154 kts | 290° |
| 2026-04-18 05:25 | 43.53833 | -5.92790 | 1768 ft | 141 kts | 290° |
| 2026-04-18 05:26 | 43.54136 | -5.94071 | 1605 ft | 142 kts | 290° |
| 2026-04-18 05:26 | 43.54444 | -5.95375 | 1431 ft | 142 kts | 290° |
| 2026-04-18 05:26 | 43.54745 | -5.96653 | 1247 ft | 140 kts | 290° |
| 2026-04-18 05:26 | 43.55042 | -5.97900 | 1051 ft | 139 kts | 288° |
| 2026-04-18 05:27 | 43.55341 | -5.99174 | 864 ft | 139 kts | 288° |
| 2026-04-18 05:27 | 43.55637 | -6.00439 | 688 ft | 138 kts | 289° |
| 2026-04-18 05:27 | 43.55937 | -6.01693 | 507 ft | 138 kts | 290° |
| 2026-04-18 05:27 | 43.56227 | -6.02926 | 416 ft | 120 kts | 288° |
| 2026-04-18 05:28 | 43.56433 | -6.03787 | 412 ft | 71 kts | 288° |
| 2026-04-18 05:28 | 43.56546 | -6.04264 | 400 ft | 42 kts | 287° |
| 2026-04-18 05:28 | 43.56629 | -6.04613 | 385 ft | 27 kts | 288° |
| 2026-04-18 05:28 | 43.56603 | -6.04754 | 369 ft | 14 kts | 185° |
| 2026-04-18 05:29 | 43.56513 | -6.04705 | 372 ft | 12 kts | 151° |
| 2026-04-18 05:29 | 43.56467 | -6.04634 | 378 ft | 8 kts | 107° |
| 2026-04-18 05:29 | 43.56446 | -6.04549 | 386 ft | 10 kts | 108° |
| 2026-04-18 05:29 | 43.56422 | -6.04444 | 394 ft | 13 kts | 107° |
| 2026-04-18 05:30 | 43.56390 | -6.04309 | 399 ft | 14 kts | 108° |
| 2026-04-18 05:30 | 43.56359 | -6.04178 | 404 ft | 15 kts | 108° |
| 2026-04-18 05:30 | 43.56329 | -6.04046 | 410 ft | 12 kts | 108° |
| 2026-04-18 05:30 | 43.56304 | -6.03942 | 414 ft | 13 kts | 108° |
| 2026-04-18 05:31 | 43.56273 | -6.03813 | 418 ft | 13 kts | 108° |
| 2026-04-18 05:31 | 43.56246 | -6.03698 | 421 ft | 11 kts | 108° |
| 2026-04-18 05:31 | 43.56217 | -6.03579 | 423 ft | 14 kts | 108° |
| 2026-04-18 05:31 | 43.56186 | -6.03447 | 423 ft | 15 kts | 108° |
| 2026-04-18 05:32 | 43.56153 | -6.03303 | 422 ft | 16 kts | 108° |
| 2026-04-18 05:32 | 43.56090 | -6.03230 | 423 ft | 12 kts | 202° |
| 2026-04-18 05:32 | 43.56080 | -6.03332 | 425 ft | 12 kts | 289° |
| 2026-04-18 05:32 | 43.56083 | -6.03416 | 426 ft | 7 kts | 218° |
| 2026-04-18 05:33 | 43.56060 | -6.03430 | 427 ft | 1 kts | 197° |
| 2026-04-18 05:33 | 43.56057 | -6.03431 | 428 ft | 0 kts | 198° |
| 2026-04-18 05:33 | 43.56050 | -6.03430 | 428 ft | 1 kts | 158° |
| 2026-04-18 05:33 | 43.56040 | -6.03418 | 428 ft | 0 kts | 147° |